Decoded Metar for CYRV (REVELSTOKE AIRPO in BC, CANADA) (IATA:YRV) | Meteo·Mobile Aviation Weather
aviador You're here:

CYRV Decoded Metar

REVELSTOKE AIRPO in BC, CANADA
Report Time2019-01-21 16:00:00
UTC Time2019-01-21 16:41:46
Flight Rules mvfr MVFR
Wind330° at 05 kt
W.Decomp.*RWY 30: 4.9 kt HW 1.2 kt RCW
W.Rank330° ranks 2
Current wind is below 330° avg. (7.0)
Visibility9999 m
Phenomena:N/A
Clouds:Broken 028 Hf
Expected CloudBase > 1,200 ft AGL from Temp-Dew spread
Ceiling2,800 ft
Temp-4°C (ISA -16)
Dew Point-7°C (80% RH)
AAT-8.6°C
QNH1020 hPa
Density Alt-712 ft
Elevation1,453 ft
Report Wrong Elevation
Raw Report
CYRV 211600Z AUTO 33005KT 290V020 9SM BKN028 M04/M07 A3011 RMK
SLP220=

Extra information for CYRV:More info

Metar Taf Metar & Taf Last 4 Metars F.Rules Stats Wind Profile Meteogram Temp Stats Airport Information Weather charts Add Link Nearby VenuesMetar ALERT Operation Metar Decoded Social comments